Time;durP1;ratioP1;P1;durP2;ratioP2;P2;SDS_P1;SDS_P2;PMS_P1;PMS_P2;Temp;Humidity;BMP_temperature;BMP_pressure;BME280_temperature;BME280_humidity;BME280_pressure;Samples;Min_cycle;Max_cycle;Signal;HPM_P1;HPM_P2
2023/06/01 00:01:32;;;;;;;;;;;18.70;71.70;;;;;;5015257;28;19917;-71
2023/06/01 00:04:01;;;;;;;;;;;18.70;71.80;;;;;;5019043;28;19913;-71
2023/06/01 00:06:30;;;;;;;;;;;18.60;71.70;;;;;;4987221;28;20371;-71
2023/06/01 00:08:56;;;;;;;;;;;18.60;71.90;;;;;;4988772;28;19922;-71
2023/06/01 00:11:21;;;;;;;;;;;18.60;71.90;;;;;;4987628;28;20537;-71
2023/06/01 00:13:48;;;;;;;;;;;18.60;72.00;;;;;;4986647;28;20693;-71
2023/06/01 00:16:13;;;;;;;;;;;18.50;72.10;;;;;;4988634;28;19953;-71
2023/06/01 00:18:39;;;;;;;;;;;18.50;72.10;;;;;;4987332;28;20359;-71
2023/06/01 00:21:05;;;;;;;;;;;18.50;71.90;;;;;;4987099;28;19921;-71
2023/06/01 00:23:31;;;;;;;;;;;18.40;72.10;;;;;;4987146;28;19917;-71
2023/06/01 00:25:57;;;;;;;;;;;18.30;72.20;;;;;;4988517;28;19913;-71
2023/06/01 00:28:22;;;;;;;;;;;18.40;72.20;;;;;;4988832;28;19920;-71
2023/06/01 00:30:48;;;;;;;;;;;18.30;72.50;;;;;;4984059;28;19918;-71
2023/06/01 00:33:13;;;;;;;;;;;18.30;72.30;;;;;;5053607;28;19938;-71
2023/06/01 00:35:39;;;;;;;;;;;18.20;72.30;;;;;;4988332;28;19910;-70
2023/06/01 00:38:06;;;;;;;;;;;18.20;72.50;;;;;;4987098;28;19978;-71
2023/06/01 00:40:32;;;;;;;;;;;18.20;72.60;;;;;;4988320;28;19971;-71
2023/06/01 00:42:58;;;;;;;;;;;18.10;72.60;;;;;;4988113;28;19925;-71
2023/06/01 00:45:23;;;;;;;;;;;18.10;73.40;;;;;;4988239;28;19922;-71
2023/06/01 00:47:49;;;;;;;;;;;18.10;72.80;;;;;;4986738;28;19914;-71
2023/06/01 00:50:15;;;;;;;;;;;18.00;72.70;;;;;;4987799;28;19948;-71
2023/06/01 00:52:41;;;;;;;;;;;18.00;73.10;;;;;;4987968;28;19910;-71
2023/06/01 00:55:07;;;;;;;;;;;18.00;73.00;;;;;;4987911;28;20009;-71
2023/06/01 00:57:33;;;;;;;;;;;18.00;73.00;;;;;;4988038;28;20386;-71
2023/06/01 00:59:58;;;;;;;;;;;17.90;72.90;;;;;;4985780;28;19921;-71
2023/06/01 01:02:24;;;;;;;;;;;17.90;73.30;;;;;;5049707;28;19981;-71
2023/06/01 01:04:52;;;;;;;;;;;17.90;73.40;;;;;;4987836;28;19920;-71
2023/06/01 01:07:23;;;;;;;;;;;17.80;73.40;;;;;;4988094;28;20533;-71
2023/06/01 01:09:53;;;;;;;;;;;17.80;73.40;;;;;;4986371;28;19986;-71
2023/06/01 01:12:32;;;;;;;;;;;17.80;73.30;;;;;;4986136;28;19940;-71
2023/06/01 01:15:11;;;;;;;;;;;17.80;73.30;;;;;;4987584;28;20374;-71
2023/06/01 01:17:38;;;;;;;;;;;17.70;73.60;;;;;;4986233;28;19941;-71
2023/06/01 01:20:24;;;;;;;;;;;17.70;73.80;;;;;;4986097;28;19940;-71
2023/06/01 01:23:04;;;;;;;;;;;17.70;73.70;;;;;;4986795;28;19917;-71
2023/06/01 01:25:52;;;;;;;;;;;17.60;73.90;;;;;;4987402;28;19914;-71
2023/06/01 01:28:26;;;;;;;;;;;17.60;73.70;;;;;;4987501;28;19910;-71
2023/06/01 01:30:53;;;;;;;;;;;17.60;74.20;;;;;;4982933;28;19922;-71
2023/06/01 01:33:18;;;;;;;;;;;17.50;73.90;;;;;;5043661;28;19912;-71
2023/06/01 01:35:45;;;;;;;;;;;17.50;73.80;;;;;;4986748;28;19992;-71
2023/06/01 01:38:10;;;;;;;;;;;17.50;73.80;;;;;;4986105;28;19910;-71
2023/06/01 01:40:36;;;;;;;;;;;17.40;74.20;;;;;;4987016;28;20484;-71
2023/06/01 01:43:01;;;;;;;;;;;17.40;74.40;;;;;;4985773;28;19918;-71
2023/06/01 01:45:27;;;;;;;;;;;17.40;74.50;;;;;;4987115;28;20405;-71
2023/06/01 01:48:21;;;;;;;;;;;17.30;74.60;;;;;;4987218;28;19914;-71
2023/06/01 01:50:56;;;;;;;;;;;17.30;74.40;;;;;;4986791;28;19920;-71
2023/06/01 01:53:23;;;;;;;;;;;17.30;74.50;;;;;;5036424;28;19916;-71
2023/06/01 01:55:49;;;;;;;;;;;17.30;74.70;;;;;;5088986;28;19916;-71
2023/06/01 01:58:15;;;;;;;;;;;17.30;74.70;;;;;;5081397;28;20296;-71
2023/06/01 02:00:41;;;;;;;;;;;17.20;75.10;;;;;;4999646;28;19938;-71
2023/06/01 02:03:14;;;;;;;;;;;17.20;74.40;;;;;;5033123;28;19921;-71
2023/06/01 02:05:40;;;;;;;;;;;17.20;74.90;;;;;;4985490;28;19914;-71
2023/06/01 02:08:05;;;;;;;;;;;17.20;75.10;;;;;;4986965;28;19967;-71
2023/06/01 02:10:31;;;;;;;;;;;17.10;75.20;;;;;;4986619;28;19914;-71
2023/06/01 02:12:56;;;;;;;;;;;17.10;75.70;;;;;;4986471;28;19949;-71
2023/06/01 02:15:22;;;;;;;;;;;17.10;75.30;;;;;;4986655;28;19916;-71
2023/06/01 02:17:47;;;;;;;;;;;17.00;75.20;;;;;;4986747;28;19975;-71
2023/06/01 02:20:14;;;;;;;;;;;17.00;75.10;;;;;;4986639;28;19918;-71
2023/06/01 02:22:39;;;;;;;;;;;17.00;75.00;;;;;;4986594;28;19918;-71
2023/06/01 02:25:05;;;;;;;;;;;16.90;75.30;;;;;;4986838;28;20011;-71
2023/06/01 02:27:31;;;;;;;;;;;17.00;75.10;;;;;;4986820;28;19995;-71
2023/06/01 02:29:56;;;;;;;;;;;16.90;75.50;;;;;;4985312;28;19953;-71
2023/06/01 02:32:22;;;;;;;;;;;16.90;75.50;;;;;;5022229;28;19918;-71
2023/06/01 02:34:47;;;;;;;;;;;16.80;75.00;;;;;;5049916;28;19981;-71
2023/06/01 02:37:13;;;;;;;;;;;16.80;75.60;;;;;;5064537;28;20483;-71
2023/06/01 02:39:38;;;;;;;;;;;16.80;75.60;;;;;;5024886;28;19913;-71
2023/06/01 02:42:05;;;;;;;;;;;16.80;75.50;;;;;;5086964;28;19939;-71
2023/06/01 02:44:30;;;;;;;;;;;16.70;75.70;;;;;;5087134;28;19912;-71
2023/06/01 02:46:56;;;;;;;;;;;16.70;75.80;;;;;;5088553;28;19912;-71
2023/06/01 02:49:21;;;;;;;;;;;16.70;75.70;;;;;;5088696;28;19919;-71
2023/06/01 02:51:47;;;;;;;;;;;16.70;75.40;;;;;;5087871;28;19916;-71
2023/06/01 02:54:12;;;;;;;;;;;16.70;75.60;;;;;;5088696;28;20003;-71
2023/06/01 02:56:38;;;;;;;;;;;16.70;75.70;;;;;;5086732;28;19938;-71
2023/06/01 02:59:03;;;;;;;;;;;16.60;75.80;;;;;;5047381;28;19921;-71
2023/06/01 03:01:35;;;;;;;;;;;16.60;75.80;;;;;;4985887;28;19956;-71
2023/06/01 03:04:03;;;;;;;;;;;16.60;75.80;;;;;;5023897;28;20537;-71
2023/06/01 03:06:31;;;;;;;;;;;16.60;75.60;;;;;;4995915;28;19910;-71
2023/06/01 03:08:57;;;;;;;;;;;16.60;75.30;;;;;;4967899;28;19937;-71
2023/06/01 03:11:22;;;;;;;;;;;16.60;75.70;;;;;;4966468;28;19984;-70
2023/06/01 03:13:48;;;;;;;;;;;16.60;75.80;;;;;;4966407;28;20480;-71
2023/06/01 03:16:13;;;;;;;;;;;16.60;75.80;;;;;;4966436;28;19914;-71
2023/06/01 03:18:39;;;;;;;;;;;16.60;75.90;;;;;;4966653;28;19945;-71
2023/06/01 03:21:05;;;;;;;;;;;16.50;75.20;;;;;;4965068;28;19993;-71
2023/06/01 03:23:31;;;;;;;;;;;16.60;75.50;;;;;;4982573;28;20507;-71
2023/06/01 03:25:56;;;;;;;;;;;16.50;75.30;;;;;;4998830;28;19913;-71
2023/06/01 03:28:22;;;;;;;;;;;16.50;75.50;;;;;;4988064;28;19944;-71
2023/06/01 03:30:47;;;;;;;;;;;16.50;75.70;;;;;;4985346;28;19965;-71
2023/06/01 03:33:13;;;;;;;;;;;16.50;75.40;;;;;;5027690;28;20024;-71
2023/06/01 03:35:38;;;;;;;;;;;16.40;75.80;;;;;;5086182;28;20262;-71
2023/06/01 03:38:04;;;;;;;;;;;16.50;75.60;;;;;;5029110;28;19914;-71
2023/06/01 03:40:30;;;;;;;;;;;16.40;75.60;;;;;;4985206;28;20406;-71
2023/06/01 03:42:55;;;;;;;;;;;16.40;75.40;;;;;;4985601;28;19913;-71
2023/06/01 03:45:21;;;;;;;;;;;16.40;75.50;;;;;;4984197;28;20268;-71
2023/06/01 03:47:46;;;;;;;;;;;16.40;75.30;;;;;;4988549;28;19913;-71
2023/06/01 03:50:12;;;;;;;;;;;16.40;75.60;;;;;;4988827;28;19920;-71
2023/06/01 03:52:37;;;;;;;;;;;16.40;75.90;;;;;;4988614;28;20447;-71
2023/06/01 03:55:10;;;;;;;;;;;16.40;75.40;;;;;;4988773;28;19914;-71
2023/06/01 03:57:36;;;;;;;;;;;16.30;75.40;;;;;;4987566;28;19916;-71
2023/06/01 04:00:03;;;;;;;;;;;16.30;75.60;;;;;;4988739;28;20032;-71
2023/06/01 04:02:30;;;;;;;;;;;16.40;75.60;;;;;;4994503;28;19914;-71
2023/06/01 04:04:55;;;;;;;;;;;16.30;75.50;;;;;;5048651;28;19919;-71
2023/06/01 04:07:21;;;;;;;;;;;16.30;75.50;;;;;;5061262;28;19914;-71
2023/06/01 04:09:47;;;;;;;;;;;16.30;75.50;;;;;;4987139;28;20415;-71
2023/06/01 04:12:13;;;;;;;;;;;16.30;75.30;;;;;;4988438;28;19971;-71
2023/06/01 04:14:39;;;;;;;;;;;16.20;75.60;;;;;;4988681;28;19917;-70
2023/06/01 04:17:05;;;;;;;;;;;16.20;75.40;;;;;;4988740;28;19949;-71
2023/06/01 04:19:32;;;;;;;;;;;16.30;75.40;;;;;;4988643;28;20677;-71
2023/06/01 04:21:57;;;;;;;;;;;16.20;75.40;;;;;;4986673;28;20360;-71
2023/06/01 04:24:23;;;;;;;;;;;16.20;75.50;;;;;;4988645;28;19925;-71
2023/06/01 04:26:51;;;;;;;;;;;16.20;75.60;;;;;;4987126;28;19910;-71
2023/06/01 04:29:19;;;;;;;;;;;16.20;75.40;;;;;;4988447;28;20289;-71
2023/06/01 04:31:45;;;;;;;;;;;16.20;75.50;;;;;;5000144;28;19912;-71
2023/06/01 04:34:10;;;;;;;;;;;16.10;75.80;;;;;;5045478;28;19920;-71
2023/06/01 04:36:39;;;;;;;;;;;16.10;75.50;;;;;;4988320;28;19949;-71
2023/06/01 04:39:06;;;;;;;;;;;16.10;75.50;;;;;;4988425;28;19921;-71
2023/06/01 04:41:32;;;;;;;;;;;16.10;75.50;;;;;;4987989;28;19921;-71
2023/06/01 04:43:58;;;;;;;;;;;16.10;75.40;;;;;;4988028;28;19913;-71
2023/06/01 04:46:26;;;;;;;;;;;16.10;75.50;;;;;;4988019;28;19917;-71
2023/06/01 04:48:59;;;;;;;;;;;16.10;75.60;;;;;;4987021;28;19915;-71
2023/06/01 04:51:26;;;;;;;;;;;16.10;75.50;;;;;;4986241;28;19918;-71
2023/06/01 04:53:53;;;;;;;;;;;16.10;75.60;;;;;;4987781;28;19997;-71
2023/06/01 04:56:19;;;;;;;;;;;16.10;75.60;;;;;;4986406;28;19914;-71
2023/06/01 04:58:46;;;;;;;;;;;16.10;75.70;;;;;;4987221;28;19954;-71
2023/06/01 05:01:15;;;;;;;;;;;16.10;75.60;;;;;;4987993;28;20008;-71
2023/06/01 05:03:41;;;;;;;;;;;16.00;75.60;;;;;;5025493;28;19914;-71
2023/06/01 05:06:06;;;;;;;;;;;16.10;75.80;;;;;;5064288;28;19912;-71
2023/06/01 05:08:33;;;;;;;;;;;16.00;75.40;;;;;;5010877;28;19914;-71
2023/06/01 05:10:58;;;;;;;;;;;16.00;75.80;;;;;;4985972;28;19949;-71
2023/06/01 05:13:24;;;;;;;;;;;16.00;75.80;;;;;;4986726;28;20490;-71
2023/06/01 05:15:50;;;;;;;;;;;16.00;75.90;;;;;;4986318;28;19917;-71
2023/06/01 05:18:15;;;;;;;;;;;16.00;75.80;;;;;;4987760;28;19914;-71
2023/06/01 05:20:41;;;;;;;;;;;16.00;75.80;;;;;;4969916;28;20425;-71
2023/06/01 05:23:06;;;;;;;;;;;15.90;75.70;;;;;;4987542;28;19921;-71
2023/06/01 05:25:32;;;;;;;;;;;16.00;75.70;;;;;;4987494;28;19914;-71
2023/06/01 05:27:57;;;;;;;;;;;15.90;75.80;;;;;;4987504;28;19914;-71
2023/06/01 05:30:23;;;;;;;;;;;15.90;75.80;;;;;;4986277;28;19995;-71
2023/06/01 05:32:48;;;;;;;;;;;15.90;75.60;;;;;;5022311;28;19944;-71
2023/06/01 05:35:14;;;;;;;;;;;15.90;75.70;;;;;;5070252;28;19954;-71
2023/06/01 05:37:39;;;;;;;;;;;15.90;75.70;;;;;;5048210;28;19910;-71
2023/06/01 05:40:07;;;;;;;;;;;15.90;75.70;;;;;;4985557;28;19948;-71
2023/06/01 05:42:33;;;;;;;;;;;15.90;75.70;;;;;;4985634;28;19920;-71
2023/06/01 05:44:58;;;;;;;;;;;15.90;75.70;;;;;;4987221;28;19917;-71
2023/06/01 05:47:24;;;;;;;;;;;16.00;75.80;;;;;;4987319;28;19914;-71
2023/06/01 05:49:50;;;;;;;;;;;16.00;75.70;;;;;;4986836;28;19913;-71
2023/06/01 05:52:16;;;;;;;;;;;15.90;75.80;;;;;;4985586;28;19924;-70
2023/06/01 05:54:42;;;;;;;;;;;15.90;75.80;;;;;;4985510;28;19913;-71
2023/06/01 05:57:08;;;;;;;;;;;15.90;75.70;;;;;;4987257;28;20018;-71
2023/06/01 05:59:33;;;;;;;;;;;15.90;75.70;;;;;;4987077;28;20362;-71
2023/06/01 06:01:59;;;;;;;;;;;15.90;75.70;;;;;;4984578;28;19964;-71
2023/06/01 06:04:25;;;;;;;;;;;15.90;75.80;;;;;;5031696;28;20081;-71
2023/06/01 06:06:50;;;;;;;;;;;15.90;75.60;;;;;;5080640;28;19912;-71
2023/06/01 06:09:16;;;;;;;;;;;15.90;75.70;;;;;;4986813;28;19959;-71
2023/06/01 06:11:41;;;;;;;;;;;15.90;75.70;;;;;;4986483;28;19963;-71
2023/06/01 06:14:07;;;;;;;;;;;15.90;75.70;;;;;;4985540;28;19910;-71
2023/06/01 06:16:33;;;;;;;;;;;15.90;75.60;;;;;;4985634;28;20398;-71
2023/06/01 06:18:58;;;;;;;;;;;15.90;75.60;;;;;;4986748;28;20355;-71
2023/06/01 06:21:24;;;;;;;;;;;15.90;75.50;;;;;;4986722;28;19913;-71
2023/06/01 06:23:49;;;;;;;;;;;15.90;75.50;;;;;;4986469;28;19917;-71
2023/06/01 06:26:15;;;;;;;;;;;15.90;75.40;;;;;;4986381;28;20012;-71
2023/06/01 06:28:40;;;;;;;;;;;16.00;75.50;;;;;;5005782;28;19918;-71
2023/06/01 06:31:06;;;;;;;;;;;15.90;75.40;;;;;;4980099;28;20597;-71
2023/06/01 06:33:31;;;;;;;;;;;16.00;75.40;;;;;;5036383;28;19921;-71
2023/06/01 06:35:57;;;;;;;;;;;16.00;75.40;;;;;;5088498;28;20027;-71
2023/06/01 06:38:22;;;;;;;;;;;16.00;75.40;;;;;;5017288;28;19974;-71
2023/06/01 06:40:48;;;;;;;;;;;16.00;75.40;;;;;;4986462;28;20412;-71
2023/06/01 06:43:14;;;;;;;;;;;16.00;75.30;;;;;;4986430;28;19914;-70
2023/06/01 06:45:41;;;;;;;;;;;16.10;75.40;;;;;;4986491;28;19910;-71
2023/06/01 06:48:06;;;;;;;;;;;16.00;75.20;;;;;;4986572;28;19913;-71
2023/06/01 06:50:32;;;;;;;;;;;16.10;75.20;;;;;;4986044;28;20431;-71
2023/06/01 06:52:59;;;;;;;;;;;16.10;75.20;;;;;;4986079;28;19960;-71
2023/06/01 06:55:24;;;;;;;;;;;16.10;75.10;;;;;;4986048;28;19997;-71
2023/06/01 06:57:50;;;;;;;;;;;16.10;75.10;;;;;;4986286;28;20008;-71
2023/06/01 07:00:15;;;;;;;;;;;16.20;75.20;;;;;;4986062;28;20606;-71
2023/06/01 07:02:45;;;;;;;;;;;16.20;75.00;;;;;;5001876;28;19912;-71
2023/06/01 07:05:10;;;;;;;;;;;16.20;75.00;;;;;;5045785;28;19908;-71
2023/06/01 07:07:37;;;;;;;;;;;16.20;75.00;;;;;;5049464;28;19921;-71
2023/06/01 07:10:02;;;;;;;;;;;16.20;74.90;;;;;;4984790;28;20362;-71
2023/06/01 07:12:28;;;;;;;;;;;16.30;74.90;;;;;;4985934;28;19917;-71
2023/06/01 07:14:53;;;;;;;;;;;16.30;74.90;;;;;;4984888;28;19925;-71
2023/06/01 07:17:19;;;;;;;;;;;16.30;74.70;;;;;;4985993;28;19937;-71
2023/06/01 07:19:45;;;;;;;;;;;16.40;74.70;;;;;;4984026;28;19941;-71
2023/06/01 07:22:10;;;;;;;;;;;16.40;74.70;;;;;;4987368;28;19953;-71
2023/06/01 07:24:36;;;;;;;;;;;16.40;74.70;;;;;;4987777;28;19917;-71
2023/06/01 07:27:01;;;;;;;;;;;16.40;74.50;;;;;;4989172;28;19918;-71
2023/06/01 07:29:27;;;;;;;;;;;16.40;74.50;;;;;;4987641;28;19913;-71
2023/06/01 07:31:53;;;;;;;;;;;16.50;75.10;;;;;;5007015;28;19920;-71
2023/06/01 07:34:19;;;;;;;;;;;16.50;74.30;;;;;;5049158;28;19916;-70
2023/06/01 07:36:48;;;;;;;;;;;16.60;74.30;;;;;;5087664;28;19916;-71
2023/06/01 07:39:14;;;;;;;;;;;16.60;74.20;;;;;;4988435;28;19945;-71
2023/06/01 07:41:40;;;;;;;;;;;16.70;74.10;;;;;;4986972;28;20382;-70
2023/06/01 07:44:07;;;;;;;;;;;16.70;73.90;;;;;;4988949;28;20017;-71
2023/06/01 07:46:33;;;;;;;;;;;16.70;73.90;;;;;;4987565;28;19914;-71
2023/06/01 07:48:58;;;;;;;;;;;16.70;73.80;;;;;;4989023;28;20004;-71
2023/06/01 07:51:24;;;;;;;;;;;16.80;73.80;;;;;;4987357;28;19932;-71
2023/06/01 07:53:49;;;;;;;;;;;16.80;73.70;;;;;;4988743;28;19913;-70
2023/06/01 07:56:15;;;;;;;;;;;16.80;73.70;;;;;;4987493;28;19960;-71
2023/06/01 07:58:40;;;;;;;;;;;16.90;73.60;;;;;;4988872;28;19913;-71
2023/06/01 08:01:06;;;;;;;;;;;16.90;73.50;;;;;;4987655;28;20527;-71
2023/06/01 08:03:33;;;;;;;;;;;16.90;73.40;;;;;;5030816;28;20253;-71
2023/06/01 08:05:59;;;;;;;;;;;17.00;73.40;;;;;;5059846;28;19911;-71
2023/06/01 08:08:25;;;;;;;;;;;17.00;73.00;;;;;;5017732;28;19914;-70
2023/06/01 08:10:51;;;;;;;;;;;17.10;73.10;;;;;;4987155;28;20678;-71
2023/06/01 08:13:18;;;;;;;;;;;17.20;73.00;;;;;;4988389;28;19921;-71
2023/06/01 08:15:47;;;;;;;;;;;17.20;73.00;;;;;;4988488;28;20001;-71
2023/06/01 08:18:15;;;;;;;;;;;17.20;72.90;;;;;;4988670;28;20383;-70
2023/06/01 08:20:41;;;;;;;;;;;17.20;72.80;;;;;;4988512;28;19956;-70
2023/06/01 08:23:07;;;;;;;;;;;17.20;73.00;;;;;;4988145;28;20504;-71
2023/06/01 08:25:33;;;;;;;;;;;17.20;72.90;;;;;;4988333;28;19921;-71
2023/06/01 08:27:58;;;;;;;;;;;17.20;73.10;;;;;;4988644;28;19964;-71
2023/06/01 08:30:27;;;;;;;;;;;17.20;73.10;;;;;;4986130;28;19910;-71
2023/06/01 08:32:52;;;;;;;;;;;17.20;73.10;;;;;;5022691;28;20321;-71
2023/06/01 08:35:19;;;;;;;;;;;17.20;73.00;;;;;;5070855;28;19965;-71
2023/06/01 08:37:46;;;;;;;;;;;17.20;73.00;;;;;;4992339;28;19921;-71
2023/06/01 08:40:12;;;;;;;;;;;17.20;72.90;;;;;;4986948;28;20367;-71
2023/06/01 08:42:57;;;;;;;;;;;17.20;72.80;;;;;;4986591;28;19914;-71
2023/06/01 08:45:23;;;;;;;;;;;17.20;73.00;;;;;;4988201;28;19917;-71
2023/06/01 08:47:50;;;;;;;;;;;17.20;72.90;;;;;;4988273;28;19909;-70
2023/06/01 08:50:16;;;;;;;;;;;17.20;73.00;;;;;;4987959;28;20373;-71
2023/06/01 08:52:43;;;;;;;;;;;17.20;73.00;;;;;;4987761;28;20008;-71
2023/06/01 08:55:08;;;;;;;;;;;17.20;72.90;;;;;;4986439;28;19921;-71
2023/06/01 08:57:34;;;;;;;;;;;17.20;73.00;;;;;;4988051;28;19910;-71
2023/06/01 09:00:00;;;;;;;;;;;17.20;72.70;;;;;;4987943;28;19967;-71
2023/06/01 09:02:27;;;;;;;;;;;17.20;72.90;;;;;;4993887;28;20462;-71
2023/06/01 09:04:52;;;;;;;;;;;17.20;72.90;;;;;;5047731;28;19919;-70
2023/06/01 09:07:18;;;;;;;;;;;17.20;72.90;;;;;;5064143;28;20279;-71
2023/06/01 09:09:44;;;;;;;;;;;17.20;72.80;;;;;;4987699;28;19914;-71
2023/06/01 09:12:17;;;;;;;;;;;17.20;72.80;;;;;;4986024;28;19985;-71
2023/06/01 09:14:42;;;;;;;;;;;17.20;72.80;;;;;;4988043;28;20493;-71
2023/06/01 09:17:12;;;;;;;;;;;17.30;72.70;;;;;;4987793;28;19997;-71
2023/06/01 09:19:41;;;;;;;;;;;17.30;72.70;;;;;;4987695;28;19914;-71
2023/06/01 09:22:07;;;;;;;;;;;17.30;72.60;;;;;;4985868;28;19982;-71
2023/06/01 09:24:32;;;;;;;;;;;17.30;72.60;;;;;;4986186;28;19918;-71
2023/06/01 09:26:59;;;;;;;;;;;17.30;72.50;;;;;;4985996;28;20013;-71
2023/06/01 09:29:26;;;;;;;;;;;17.30;72.50;;;;;;4985946;28;20389;-71
2023/06/01 09:31:52;;;;;;;;;;;17.30;72.40;;;;;;5003939;28;19985;-71
2023/06/01 09:34:19;;;;;;;;;;;17.40;72.40;;;;;;5046733;28;20307;-70
2023/06/01 09:36:48;;;;;;;;;;;17.40;72.30;;;;;;5087093;28;19924;-71
2023/06/01 09:39:15;;;;;;;;;;;17.40;72.30;;;;;;4985837;28;20424;-71
2023/06/01 09:41:50;;;;;;;;;;;17.40;72.20;;;;;;4985452;28;19996;-71
2023/06/01 09:44:22;;;;;;;;;;;17.50;72.20;;;;;;4987140;28;19910;-71
2023/06/01 09:46:48;;;;;;;;;;;17.50;72.20;;;;;;4987091;28;19921;-71
2023/06/01 09:49:21;;;;;;;;;;;17.50;72.10;;;;;;4987316;28;19916;-71
2023/06/01 09:51:47;;;;;;;;;;;17.50;72.00;;;;;;4986535;28;19924;-70
2023/06/01 09:54:22;;;;;;;;;;;17.60;72.00;;;;;;4987238;28;20000;-70
2023/06/01 09:56:48;;;;;;;;;;;17.60;71.90;;;;;;4986842;28;19909;-70
2023/06/01 09:59:14;;;;;;;;;;;17.60;71.70;;;;;;4985817;28;19918;-70
2023/06/01 10:01:40;;;;;;;;;;;17.70;71.80;;;;;;4986909;28;20317;-71
2023/06/01 10:04:06;;;;;;;;;;;17.70;71.70;;;;;;5024696;28;19928;-71
2023/06/01 10:06:37;;;;;;;;;;;17.70;71.60;;;;;;5082324;28;19912;-71
2023/06/01 10:09:05;;;;;;;;;;;17.80;71.60;;;;;;4987516;28;20625;-70
2023/06/01 10:11:31;;;;;;;;;;;17.80;71.50;;;;;;4986631;28;19949;-71
2023/06/01 10:13:57;;;;;;;;;;;17.90;71.60;;;;;;4986824;28;19921;-71
2023/06/01 10:16:23;;;;;;;;;;;17.90;71.50;;;;;;4986768;28;20458;-71
2023/06/01 10:18:50;;;;;;;;;;;17.90;71.40;;;;;;4985510;28;19957;-71
2023/06/01 10:21:17;;;;;;;;;;;18.00;71.40;;;;;;4986498;28;19917;-71
2023/06/01 10:23:42;;;;;;;;;;;18.00;71.30;;;;;;4986374;28;20367;-70
2023/06/01 10:26:15;;;;;;;;;;;18.10;71.30;;;;;;4985086;28;19921;-70
2023/06/01 10:28:40;;;;;;;;;;;18.20;71.30;;;;;;4986765;28;20271;-71
2023/06/01 10:31:25;;;;;;;;;;;18.20;71.20;;;;;;4986575;28;19917;-71
2023/06/01 10:33:55;;;;;;;;;;;18.30;71.20;;;;;;4981581;28;19917;-70
2023/06/01 10:36:21;;;;;;;;;;;18.30;71.20;;;;;;4966973;28;19917;-71
2023/06/01 10:38:46;;;;;;;;;;;18.40;71.20;;;;;;4983609;28;20369;-70
2023/06/01 10:41:28;;;;;;;;;;;18.40;71.00;;;;;;4986578;28;20001;-71
2023/06/01 10:43:54;;;;;;;;;;;18.50;71.00;;;;;;4967096;28;20012;-71
2023/06/01 10:46:40;;;;;;;;;;;18.60;70.90;;;;;;4981801;28;20005;-71
2023/06/01 10:49:06;;;;;;;;;;;18.70;71.00;;;;;;4967168;28;20442;-71
2023/06/01 10:51:31;;;;;;;;;;;18.70;70.90;;;;;;4981974;28;20009;-70
2023/06/01 10:54:16;;;;;;;;;;;18.90;70.80;;;;;;4983333;28;19921;-70
2023/06/01 10:56:41;;;;;;;;;;;19.00;70.90;;;;;;4985577;28;20612;-70
2023/06/01 10:59:09;;;;;;;;;;;19.00;71.30;;;;;;5014486;28;19914;-70
2023/06/01 11:01:39;;;;;;;;;;;19.20;70.70;;;;;;4984503;28;19971;-70
2023/06/01 11:04:08;;;;;;;;;;;19.20;70.60;;;;;;4985802;28;19910;-71
2023/06/01 11:06:37;;;;;;;;;;;19.40;70.60;;;;;;4986053;28;20026;-70
2023/06/01 11:09:05;;;;;;;;;;;19.50;70.50;;;;;;4984194;28;20374;-70
2023/06/01 11:11:58;;;;;;;;;;;19.60;70.50;;;;;;4985895;28;19918;-70
2023/06/01 11:14:24;;;;;;;;;;;19.60;70.30;;;;;;4991802;28;19914;-70
2023/06/01 11:16:50;;;;;;;;;;;19.70;70.20;;;;;;4986011;28;19917;-70
2023/06/01 11:19:26;;;;;;;;;;;19.80;70.00;;;;;;4985684;28;20519;-70
2023/06/01 11:22:03;;;;;;;;;;;19.90;70.00;;;;;;4985219;28;19917;-70
2023/06/01 11:24:33;;;;;;;;;;;20.00;70.10;;;;;;4985377;28;19929;-70
2023/06/01 11:27:04;;;;;;;;;;;20.10;70.30;;;;;;4984236;28;19920;-70
2023/06/01 11:29:30;;;;;;;;;;;20.20;70.10;;;;;;4985661;28;20400;-70
2023/06/01 11:31:57;;;;;;;;;;;20.20;69.90;;;;;;4972105;28;19915;-70
2023/06/01 11:34:37;;;;;;;;;;;20.30;69.80;;;;;;4964884;28;19968;-70
2023/06/01 11:37:03;;;;;;;;;;;20.40;69.90;;;;;;4968734;28;20436;-71
2023/06/01 11:39:29;;;;;;;;;;;20.40;69.90;;;;;;4985676;28;19922;-70
2023/06/01 11:42:08;;;;;;;;;;;20.50;70.00;;;;;;4983777;28;19914;-70
2023/06/01 11:44:35;;;;;;;;;;;20.60;69.90;;;;;;4985593;28;19917;-70
2023/06/01 11:47:00;;;;;;;;;;;20.60;69.70;;;;;;4985197;28;19914;-71
2023/06/01 11:49:26;;;;;;;;;;;20.70;69.80;;;;;;4984121;28;19914;-70
2023/06/01 11:51:53;;;;;;;;;;;20.80;69.90;;;;;;4984373;28;19957;-70
2023/06/01 11:54:22;;;;;;;;;;;20.80;69.80;;;;;;4985188;28;19983;-70
2023/06/01 11:56:47;;;;;;;;;;;20.90;69.90;;;;;;4982760;28;19914;-70
2023/06/01 11:59:13;;;;;;;;;;;21.00;70.10;;;;;;5044168;28;20387;-70
2023/06/01 12:01:42;;;;;;;;;;;21.00;70.00;;;;;;5025585;28;19935;-70
2023/06/01 12:04:14;;;;;;;;;;;21.10;69.90;;;;;;4986811;28;20427;-70
2023/06/01 12:06:40;;;;;;;;;;;21.10;69.80;;;;;;4985688;28;20595;-70
2023/06/01 12:09:06;;;;;;;;;;;21.20;69.80;;;;;;4988380;28;19948;-70
2023/06/01 12:11:32;;;;;;;;;;;21.30;69.80;;;;;;4986350;28;19917;-69
2023/06/01 12:13:58;;;;;;;;;;;21.40;69.60;;;;;;4987476;28;19963;-70
2023/06/01 12:16:25;;;;;;;;;;;21.40;69.70;;;;;;4987373;28;19913;-70
2023/06/01 12:18:51;;;;;;;;;;;21.40;69.60;;;;;;4987449;28;19973;-70
2023/06/01 12:21:17;;;;;;;;;;;21.50;69.80;;;;;;4987242;28;20409;-70
2023/06/01 12:23:43;;;;;;;;;;;21.60;69.50;;;;;;4987060;28;19922;-69
2023/06/01 12:26:09;;;;;;;;;;;21.60;69.60;;;;;;4987339;28;20566;-70
2023/06/01 12:28:54;;;;;;;;;;;21.60;69.50;;;;;;4987684;28;19935;-70
2023/06/01 12:31:20;;;;;;;;;;;21.70;69.60;;;;;;4979373;28;20352;-70
2023/06/01 12:33:48;;;;;;;;;;;21.80;69.60;;;;;;4986667;28;20032;-70
2023/06/01 12:36:32;;;;;;;;;;;21.80;69.50;;;;;;4985651;28;19922;-70
2023/06/01 12:39:03;;;;;;;;;;;21.80;69.50;;;;;;4987430;28;20051;-69
2023/06/01 12:41:28;;;;;;;;;;;21.90;69.50;;;;;;4985885;28;19917;-70
2023/06/01 12:43:54;;;;;;;;;;;22.00;69.50;;;;;;5007714;28;19916;-70
2023/06/01 12:46:21;;;;;;;;;;;22.00;69.50;;;;;;5089705;28;19912;-70
2023/06/01 12:48:47;;;;;;;;;;;22.00;69.80;;;;;;5088462;28;19912;-70
2023/06/01 12:51:12;;;;;;;;;;;22.00;69.70;;;;;;5034642;28;20435;-70
2023/06/01 12:53:38;;;;;;;;;;;22.10;69.60;;;;;;4985145;28;20379;-70
2023/06/01 12:56:04;;;;;;;;;;;22.20;69.80;;;;;;4987070;28;19921;-70
2023/06/01 12:58:30;;;;;;;;;;;22.30;69.60;;;;;;4988042;28;19910;-70
2023/06/01 13:00:56;;;;;;;;;;;22.30;69.70;;;;;;4991111;28;19918;-70
2023/06/01 13:03:22;;;;;;;;;;;22.30;70.30;;;;;;4985282;28;20610;-70
2023/06/01 13:05:49;;;;;;;;;;;22.40;69.40;;;;;;4987152;28;19914;-70
2023/06/01 13:08:15;;;;;;;;;;;22.40;69.40;;;;;;4987785;28;20291;-70
2023/06/01 13:10:41;;;;;;;;;;;22.50;69.40;;;;;;4986911;28;19914;-69
2023/06/01 13:13:07;;;;;;;;;;;22.50;69.40;;;;;;4987335;28;19914;-70
2023/06/01 13:15:33;;;;;;;;;;;22.50;69.40;;;;;;4987712;28;20737;-70
2023/06/01 13:17:58;;;;;;;;;;;22.60;69.50;;;;;;4986255;28;20015;-70
2023/06/01 13:20:24;;;;;;;;;;;22.60;69.40;;;;;;4987174;28;20018;-70
2023/06/01 13:22:49;;;;;;;;;;;22.60;69.50;;;;;;4980509;28;20111;-70
2023/06/01 13:25:15;;;;;;;;;;;22.70;69.40;;;;;;4987515;28;20525;-70
2023/06/01 13:27:40;;;;;;;;;;;22.80;69.40;;;;;;4987349;28;19910;-70
2023/06/01 13:30:07;;;;;;;;;;;22.80;69.10;;;;;;4987311;28;19913;-71
2023/06/01 13:32:34;;;;;;;;;;;22.80;69.10;;;;;;4985766;28;20301;-70
2023/06/01 13:35:00;;;;;;;;;;;22.90;69.00;;;;;;4987247;28;20002;-69
2023/06/01 13:37:26;;;;;;;;;;;22.90;69.00;;;;;;4987282;28;20361;-70
2023/06/01 13:39:51;;;;;;;;;;;23.00;69.00;;;;;;4985822;28;19953;-70
2023/06/01 13:42:17;;;;;;;;;;;23.00;68.90;;;;;;4986996;28;20682;-70
2023/06/01 13:44:45;;;;;;;;;;;23.00;68.90;;;;;;4987493;28;20302;-70
2023/06/01 13:47:11;;;;;;;;;;;23.10;68.80;;;;;;4985749;28;20350;-70
2023/06/01 13:49:37;;;;;;;;;;;23.10;68.80;;;;;;4987135;28;20367;-70
2023/06/01 13:52:02;;;;;;;;;;;23.20;68.90;;;;;;5001215;28;19967;-70
2023/06/01 13:54:28;;;;;;;;;;;23.20;68.80;;;;;;4987168;28;19945;-70
2023/06/01 13:56:54;;;;;;;;;;;23.20;68.80;;;;;;4985538;28;19952;-70
2023/06/01 13:59:20;;;;;;;;;;;23.20;68.60;;;;;;4986791;28;19917;-70
2023/06/01 14:01:45;;;;;;;;;;;23.30;68.60;;;;;;4986493;28;19913;-70
2023/06/01 14:04:11;;;;;;;;;;;23.30;68.60;;;;;;4970888;28;19914;-70
2023/06/01 14:06:37;;;;;;;;;;;23.40;68.30;;;;;;4986749;28;19914;-70
2023/06/01 14:09:02;;;;;;;;;;;23.40;68.30;;;;;;4986816;28;20581;-70
2023/06/01 14:11:28;;;;;;;;;;;23.40;68.30;;;;;;4986730;28;19918;-70
2023/06/01 14:13:53;;;;;;;;;;;23.50;67.90;;;;;;4985383;28;20673;-70
2023/06/01 14:16:19;;;;;;;;;;;23.50;67.80;;;;;;4986648;28;19914;-70